Main page
METAR-TAF:

METAR-TAF

Airports :

Norwich, England

Norwich Airport

latitude: 52-38N, longitude: 001-18E, elevation: 14 m

Current weather observation

The report was made 20 minutes ago, at 01:50 UTC
Wind 13 kt from the West/Southwest, varying between Southwest and West
Temperature 11°C
Humidity 100%
Pressure 991 hPa
Visibility 10 km or more

METAR: EGSH 290150Z AUTO 24013KT 220V280 9999 OVC005/// 11/11 Q0991

Time: 03:10 (02:10 UTC)

Forecast

The report was made 5 hours and 16 minutes ago, at 20:54 UTC
Forecast valid from 28 at 21 UTC to 28 at 24 UTC
Wind 12 kt from the West
Visibility: 3000 m
Broken clouds at a height of 200 ft
light drizzle, mist
Probability 30% :
Temporary
from 28 at 21 UTC to 28 at 24 UTC
Visibility 10 km or more
Scattered clouds at a height of 300 ft
Broken clouds at a height of 700 ft

TAF: EGSH 282054Z 2821/2824 26012KT 3000 -DZ BR BKN002 PROB30 TEMPO 2821/2824 9999 NSW SCT003 BKN007

Weather observations and forecasts of more than 4000 airports (METAR and TAF reports).

The available stations are represented by yellow and red dots on the map.

Hover mouse over dot to see the name of the station.

Then click to see weather observations and forecasts.

To change the map : click on the green buttons with a black cross to zoom in, on the green button with a dash to zoom out, or on the green arrows for adjacent maps.


METAR-TAF: